sensor_id;sensor_type;location;lat;lon;timestamp;P1;durP1;ratioP1;P2;durP2;ratioP2
2147;SDS011;1080;48.724;9.104;2023-03-01T00:00:03;14.70;;;8.70;;
2147;SDS011;1080;48.724;9.104;2023-03-01T00:02:31;16.67;;;9.53;;
2147;SDS011;1080;48.724;9.104;2023-03-01T00:04:58;16.27;;;9.40;;
2147;SDS011;1080;48.724;9.104;2023-03-01T00:07:25;18.23;;;9.80;;
2147;SDS011;1080;48.724;9.104;2023-03-01T00:09:52;14.73;;;9.33;;
2147;SDS011;1080;48.724;9.104;2023-03-01T00:12:20;15.43;;;10.00;;
2147;SDS011;1080;48.724;9.104;2023-03-01T00:14:47;16.03;;;9.67;;
2147;SDS011;1080;48.724;9.104;2023-03-01T00:17:14;14.20;;;8.90;;
2147;SDS011;1080;48.724;9.104;2023-03-01T00:19:42;16.50;;;8.83;;
2147;SDS011;1080;48.724;9.104;2023-03-01T00:22:09;15.90;;;8.50;;
2147;SDS011;1080;48.724;9.104;2023-03-01T00:24:36;19.57;;;9.83;;
2147;SDS011;1080;48.724;9.104;2023-03-01T00:27:03;16.30;;;8.50;;
2147;SDS011;1080;48.724;9.104;2023-03-01T00:29:31;17.73;;;8.93;;
2147;SDS011;1080;48.724;9.104;2023-03-01T00:31:59;16.23;;;9.73;;
2147;SDS011;1080;48.724;9.104;2023-03-01T00:34:26;14.30;;;9.37;;
2147;SDS011;1080;48.724;9.104;2023-03-01T00:36:53;16.67;;;9.80;;
2147;SDS011;1080;48.724;9.104;2023-03-01T00:39:20;13.77;;;9.30;;
2147;SDS011;1080;48.724;9.104;2023-03-01T00:41:47;15.13;;;8.73;;
2147;SDS011;1080;48.724;9.104;2023-03-01T00:44:14;16.70;;;8.60;;
2147;SDS011;1080;48.724;9.104;2023-03-01T00:46:43;18.23;;;9.80;;
2147;SDS011;1080;48.724;9.104;2023-03-01T00:49:10;17.23;;;8.93;;
2147;SDS011;1080;48.724;9.104;2023-03-01T00:51:37;17.17;;;9.67;;
2147;SDS011;1080;48.724;9.104;2023-03-01T00:54:07;19.43;;;9.33;;
2147;SDS011;1080;48.724;9.104;2023-03-01T00:56:35;19.57;;;9.63;;
2147;SDS011;1080;48.724;9.104;2023-03-01T00:59:02;21.27;;;9.10;;
2147;SDS011;1080;48.724;9.104;2023-03-01T01:01:29;15.50;;;8.37;;
2147;SDS011;1080;48.724;9.104;2023-03-01T01:03:59;15.33;;;8.60;;
2147;SDS011;1080;48.724;9.104;2023-03-01T01:06:29;14.13;;;7.63;;
2147;SDS011;1080;48.724;9.104;2023-03-01T01:08:56;16.23;;;8.87;;
2147;SDS011;1080;48.724;9.104;2023-03-01T01:11:25;13.73;;;7.80;;
2147;SDS011;1080;48.724;9.104;2023-03-01T01:13:53;14.10;;;7.20;;
2147;SDS011;1080;48.724;9.104;2023-03-01T01:16:21;14.60;;;9.50;;
2147;SDS011;1080;48.724;9.104;2023-03-01T01:18:49;14.87;;;8.27;;
2147;SDS011;1080;48.724;9.104;2023-03-01T01:21:18;16.83;;;10.30;;
2147;SDS011;1080;48.724;9.104;2023-03-01T01:23:47;13.20;;;8.47;;
2147;SDS011;1080;48.724;9.104;2023-03-01T01:26:17;12.93;;;7.77;;
2147;SDS011;1080;48.724;9.104;2023-03-01T01:28:46;13.03;;;7.40;;
2147;SDS011;1080;48.724;9.104;2023-03-01T01:31:13;12.77;;;8.40;;
2147;SDS011;1080;48.724;9.104;2023-03-01T01:33:40;17.20;;;8.67;;
2147;SDS011;1080;48.724;9.104;2023-03-01T01:36:08;11.80;;;8.30;;
2147;SDS011;1080;48.724;9.104;2023-03-01T01:38:36;17.70;;;10.07;;
2147;SDS011;1080;48.724;9.104;2023-03-01T01:41:04;12.10;;;8.03;;
2147;SDS011;1080;48.724;9.104;2023-03-01T01:43:33;11.27;;;7.03;;
2147;SDS011;1080;48.724;9.104;2023-03-01T01:46:03;11.77;;;7.33;;
2147;SDS011;1080;48.724;9.104;2023-03-01T01:48:34;13.90;;;7.53;;
2147;SDS011;1080;48.724;9.104;2023-03-01T01:51:06;14.50;;;8.03;;
2147;SDS011;1080;48.724;9.104;2023-03-01T01:53:34;12.53;;;8.23;;
2147;SDS011;1080;48.724;9.104;2023-03-01T01:56:05;16.83;;;9.60;;
2147;SDS011;1080;48.724;9.104;2023-03-01T01:58:33;12.90;;;7.50;;
2147;SDS011;1080;48.724;9.104;2023-03-01T02:01:00;16.17;;;8.33;;
2147;SDS011;1080;48.724;9.104;2023-03-01T02:03:28;14.20;;;7.53;;
2147;SDS011;1080;48.724;9.104;2023-03-01T02:05:59;18.80;;;8.20;;
2147;SDS011;1080;48.724;9.104;2023-03-01T02:08:29;15.53;;;7.50;;
2147;SDS011;1080;48.724;9.104;2023-03-01T02:11:00;14.97;;;9.17;;
2147;SDS011;1080;48.724;9.104;2023-03-01T02:13:29;17.03;;;9.60;;
2147;SDS011;1080;48.724;9.104;2023-03-01T02:15:56;13.10;;;7.87;;
2147;SDS011;1080;48.724;9.104;2023-03-01T02:18:25;11.87;;;7.50;;
2147;SDS011;1080;48.724;9.104;2023-03-01T02:20:56;15.70;;;8.03;;
2147;SDS011;1080;48.724;9.104;2023-03-01T02:23:30;16.80;;;9.30;;
2147;SDS011;1080;48.724;9.104;2023-03-01T02:26:00;16.03;;;8.20;;
2147;SDS011;1080;48.724;9.104;2023-03-01T02:28:34;12.47;;;7.63;;
2147;SDS011;1080;48.724;9.104;2023-03-01T02:31:02;14.80;;;7.47;;
2147;SDS011;1080;48.724;9.104;2023-03-01T02:33:47;10.47;;;7.50;;
2147;SDS011;1080;48.724;9.104;2023-03-01T02:36:15;14.60;;;9.10;;
2147;SDS011;1080;48.724;9.104;2023-03-01T02:38:45;15.73;;;9.13;;
2147;SDS011;1080;48.724;9.104;2023-03-01T02:41:13;16.77;;;9.90;;
2147;SDS011;1080;48.724;9.104;2023-03-01T02:43:44;16.93;;;9.63;;
2147;SDS011;1080;48.724;9.104;2023-03-01T02:46:13;15.07;;;7.60;;
2147;SDS011;1080;48.724;9.104;2023-03-01T02:48:43;16.97;;;9.50;;
2147;SDS011;1080;48.724;9.104;2023-03-01T02:51:21;12.83;;;8.87;;
2147;SDS011;1080;48.724;9.104;2023-03-01T02:54:00;18.80;;;9.17;;
2147;SDS011;1080;48.724;9.104;2023-03-01T02:56:34;14.87;;;8.23;;
2147;SDS011;1080;48.724;9.104;2023-03-01T02:59:02;17.00;;;10.30;;
2147;SDS011;1080;48.724;9.104;2023-03-01T03:01:29;14.83;;;9.23;;
2147;SDS011;1080;48.724;9.104;2023-03-01T03:04:02;18.60;;;10.10;;
2147;SDS011;1080;48.724;9.104;2023-03-01T03:06:29;16.53;;;10.30;;
2147;SDS011;1080;48.724;9.104;2023-03-01T03:08:57;16.40;;;9.40;;
2147;SDS011;1080;48.724;9.104;2023-03-01T03:11:24;18.30;;;11.73;;
2147;SDS011;1080;48.724;9.104;2023-03-01T03:13:51;18.07;;;10.43;;
2147;SDS011;1080;48.724;9.104;2023-03-01T03:16:19;14.77;;;9.37;;
2147;SDS011;1080;48.724;9.104;2023-03-01T03:18:47;16.73;;;9.93;;
2147;SDS011;1080;48.724;9.104;2023-03-01T03:21:14;18.67;;;10.60;;
2147;SDS011;1080;48.724;9.104;2023-03-01T03:23:41;21.77;;;10.00;;
2147;SDS011;1080;48.724;9.104;2023-03-01T03:26:08;16.80;;;9.67;;
2147;SDS011;1080;48.724;9.104;2023-03-01T03:28:40;14.87;;;9.50;;
2147;SDS011;1080;48.724;9.104;2023-03-01T03:31:07;17.70;;;11.10;;
2147;SDS011;1080;48.724;9.104;2023-03-01T03:33:36;14.80;;;9.43;;
2147;SDS011;1080;48.724;9.104;2023-03-01T03:36:03;19.33;;;9.63;;
2147;SDS011;1080;48.724;9.104;2023-03-01T03:38:30;22.27;;;11.70;;
2147;SDS011;1080;48.724;9.104;2023-03-01T03:41:01;16.23;;;10.67;;
2147;SDS011;1080;48.724;9.104;2023-03-01T03:43:30;19.23;;;10.30;;
2147;SDS011;1080;48.724;9.104;2023-03-01T03:45:57;16.33;;;9.00;;
2147;SDS011;1080;48.724;9.104;2023-03-01T03:48:25;22.03;;;10.50;;
2147;SDS011;1080;48.724;9.104;2023-03-01T03:50:54;16.60;;;9.80;;
2147;SDS011;1080;48.724;9.104;2023-03-01T03:53:22;20.90;;;10.90;;
2147;SDS011;1080;48.724;9.104;2023-03-01T03:55:50;17.10;;;10.00;;
2147;SDS011;1080;48.724;9.104;2023-03-01T03:58:19;16.30;;;9.60;;
2147;SDS011;1080;48.724;9.104;2023-03-01T04:00:48;20.03;;;9.83;;
2147;SDS011;1080;48.724;9.104;2023-03-01T04:03:16;18.73;;;10.20;;
2147;SDS011;1080;48.724;9.104;2023-03-01T04:05:45;16.50;;;10.00;;
2147;SDS011;1080;48.724;9.104;2023-03-01T04:08:13;22.53;;;11.30;;
2147;SDS011;1080;48.724;9.104;2023-03-01T04:10:41;16.10;;;10.80;;
2147;SDS011;1080;48.724;9.104;2023-03-01T04:13:12;19.53;;;11.47;;
2147;SDS011;1080;48.724;9.104;2023-03-01T04:15:40;15.87;;;9.33;;
2147;SDS011;1080;48.724;9.104;2023-03-01T04:18:09;15.93;;;9.83;;
2147;SDS011;1080;48.724;9.104;2023-03-01T04:20:39;19.60;;;11.63;;
2147;SDS011;1080;48.724;9.104;2023-03-01T04:23:07;17.30;;;11.10;;
2147;SDS011;1080;48.724;9.104;2023-03-01T04:25:40;32.43;;;12.40;;
2147;SDS011;1080;48.724;9.104;2023-03-01T04:28:08;16.60;;;9.63;;
2147;SDS011;1080;48.724;9.104;2023-03-01T04:30:35;19.00;;;10.70;;
2147;SDS011;1080;48.724;9.104;2023-03-01T04:33:03;19.63;;;11.77;;
2147;SDS011;1080;48.724;9.104;2023-03-01T04:35:31;21.30;;;12.37;;
2147;SDS011;1080;48.724;9.104;2023-03-01T04:37:59;17.23;;;10.57;;
2147;SDS011;1080;48.724;9.104;2023-03-01T04:40:27;15.20;;;10.33;;
2147;SDS011;1080;48.724;9.104;2023-03-01T04:42:55;23.20;;;11.03;;
2147;SDS011;1080;48.724;9.104;2023-03-01T04:45:22;17.23;;;11.43;;
2147;SDS011;1080;48.724;9.104;2023-03-01T04:47:49;20.70;;;10.13;;
2147;SDS011;1080;48.724;9.104;2023-03-01T04:50:17;18.47;;;10.80;;
2147;SDS011;1080;48.724;9.104;2023-03-01T04:52:46;14.13;;;10.20;;
2147;SDS011;1080;48.724;9.104;2023-03-01T04:55:13;16.10;;;9.87;;
2147;SDS011;1080;48.724;9.104;2023-03-01T04:57:40;18.73;;;9.87;;
2147;SDS011;1080;48.724;9.104;2023-03-01T05:00:10;18.10;;;10.87;;
2147;SDS011;1080;48.724;9.104;2023-03-01T05:02:46;17.57;;;9.90;;
2147;SDS011;1080;48.724;9.104;2023-03-01T05:05:18;17.63;;;10.53;;
2147;SDS011;1080;48.724;9.104;2023-03-01T05:07:45;17.47;;;11.50;;
2147;SDS011;1080;48.724;9.104;2023-03-01T05:10:12;16.20;;;10.30;;
2147;SDS011;1080;48.724;9.104;2023-03-01T05:12:39;17.63;;;11.13;;
2147;SDS011;1080;48.724;9.104;2023-03-01T05:15:06;17.03;;;11.47;;
2147;SDS011;1080;48.724;9.104;2023-03-01T05:17:35;17.23;;;10.60;;
2147;SDS011;1080;48.724;9.104;2023-03-01T05:20:02;17.50;;;10.30;;
2147;SDS011;1080;48.724;9.104;2023-03-01T05:22:33;17.50;;;10.50;;
2147;SDS011;1080;48.724;9.104;2023-03-01T05:25:00;27.33;;;12.00;;
2147;SDS011;1080;48.724;9.104;2023-03-01T05:27:27;20.97;;;12.63;;
2147;SDS011;1080;48.724;9.104;2023-03-01T05:29:55;17.37;;;11.30;;
2147;SDS011;1080;48.724;9.104;2023-03-01T05:32:22;20.77;;;12.20;;
2147;SDS011;1080;48.724;9.104;2023-03-01T05:34:50;18.03;;;12.23;;
2147;SDS011;1080;48.724;9.104;2023-03-01T05:37:20;24.63;;;14.83;;
2147;SDS011;1080;48.724;9.104;2023-03-01T05:39:47;21.03;;;12.53;;
2147;SDS011;1080;48.724;9.104;2023-03-01T05:42:15;19.10;;;12.17;;
2147;SDS011;1080;48.724;9.104;2023-03-01T05:44:43;18.27;;;11.17;;
2147;SDS011;1080;48.724;9.104;2023-03-01T05:47:10;24.77;;;12.10;;
2147;SDS011;1080;48.724;9.104;2023-03-01T05:49:37;22.10;;;11.10;;
2147;SDS011;1080;48.724;9.104;2023-03-01T05:52:06;15.47;;;9.70;;
2147;SDS011;1080;48.724;9.104;2023-03-01T05:54:33;20.70;;;12.87;;
2147;SDS011;1080;48.724;9.104;2023-03-01T05:57:01;19.83;;;12.03;;
2147;SDS011;1080;48.724;9.104;2023-03-01T05:59:28;19.30;;;12.93;;
2147;SDS011;1080;48.724;9.104;2023-03-01T06:01:55;22.00;;;12.30;;
2147;SDS011;1080;48.724;9.104;2023-03-01T06:04:22;20.23;;;11.23;;
2147;SDS011;1080;48.724;9.104;2023-03-01T06:06:49;16.47;;;10.40;;
2147;SDS011;1080;48.724;9.104;2023-03-01T06:09:17;20.43;;;11.17;;
2147;SDS011;1080;48.724;9.104;2023-03-01T06:11:44;25.83;;;13.50;;
2147;SDS011;1080;48.724;9.104;2023-03-01T06:14:11;21.97;;;12.07;;
2147;SDS011;1080;48.724;9.104;2023-03-01T06:16:39;23.47;;;14.10;;
2147;SDS011;1080;48.724;9.104;2023-03-01T06:19:06;23.30;;;12.17;;
2147;SDS011;1080;48.724;9.104;2023-03-01T06:21:33;23.50;;;12.73;;
2147;SDS011;1080;48.724;9.104;2023-03-01T06:24:00;19.07;;;11.80;;
2147;SDS011;1080;48.724;9.104;2023-03-01T06:26:29;23.33;;;11.23;;
2147;SDS011;1080;48.724;9.104;2023-03-01T06:28:55;21.80;;;12.60;;
2147;SDS011;1080;48.724;9.104;2023-03-01T06:31:22;19.43;;;11.90;;
2147;SDS011;1080;48.724;9.104;2023-03-01T06:33:49;21.53;;;12.37;;
2147;SDS011;1080;48.724;9.104;2023-03-01T06:36:17;21.10;;;12.40;;
2147;SDS011;1080;48.724;9.104;2023-03-01T06:38:46;16.23;;;11.30;;
2147;SDS011;1080;48.724;9.104;2023-03-01T06:41:13;14.90;;;10.57;;
2147;SDS011;1080;48.724;9.104;2023-03-01T06:43:41;18.80;;;10.80;;
2147;SDS011;1080;48.724;9.104;2023-03-01T06:46:08;17.40;;;11.20;;
2147;SDS011;1080;48.724;9.104;2023-03-01T06:48:35;15.73;;;10.43;;
2147;SDS011;1080;48.724;9.104;2023-03-01T06:51:02;19.70;;;11.73;;
2147;SDS011;1080;48.724;9.104;2023-03-01T06:53:30;20.87;;;12.20;;
2147;SDS011;1080;48.724;9.104;2023-03-01T06:55:57;16.30;;;11.40;;
2147;SDS011;1080;48.724;9.104;2023-03-01T06:58:25;17.10;;;11.77;;
2147;SDS011;1080;48.724;9.104;2023-03-01T07:00:53;20.03;;;11.87;;
2147;SDS011;1080;48.724;9.104;2023-03-01T07:03:20;18.50;;;11.10;;
2147;SDS011;1080;48.724;9.104;2023-03-01T07:05:48;16.60;;;11.13;;
2147;SDS011;1080;48.724;9.104;2023-03-01T07:08:16;17.57;;;11.07;;
2147;SDS011;1080;48.724;9.104;2023-03-01T07:10:44;19.63;;;12.20;;
2147;SDS011;1080;48.724;9.104;2023-03-01T07:13:11;19.20;;;12.40;;
2147;SDS011;1080;48.724;9.104;2023-03-01T07:15:39;18.40;;;11.30;;
2147;SDS011;1080;48.724;9.104;2023-03-01T07:18:08;21.33;;;11.87;;
2147;SDS011;1080;48.724;9.104;2023-03-01T07:20:34;17.47;;;12.10;;
2147;SDS011;1080;48.724;9.104;2023-03-01T07:23:01;18.33;;;11.40;;
2147;SDS011;1080;48.724;9.104;2023-03-01T07:25:28;23.00;;;12.60;;
2147;SDS011;1080;48.724;9.104;2023-03-01T07:27:57;23.20;;;12.27;;
2147;SDS011;1080;48.724;9.104;2023-03-01T07:30:24;18.73;;;12.27;;
2147;SDS011;1080;48.724;9.104;2023-03-01T07:32:53;17.93;;;11.47;;
2147;SDS011;1080;48.724;9.104;2023-03-01T07:35:21;25.87;;;13.00;;
2147;SDS011;1080;48.724;9.104;2023-03-01T07:37:49;21.30;;;13.57;;
2147;SDS011;1080;48.724;9.104;2023-03-01T07:40:16;20.83;;;12.50;;
2147;SDS011;1080;48.724;9.104;2023-03-01T07:42:43;69.23;;;47.17;;
2147;SDS011;1080;48.724;9.104;2023-03-01T07:45:10;141.30;;;68.47;;
2147;SDS011;1080;48.724;9.104;2023-03-01T07:47:38;94.47;;;55.57;;
2147;SDS011;1080;48.724;9.104;2023-03-01T07:50:06;188.67;;;85.33;;
2147;SDS011;1080;48.724;9.104;2023-03-01T07:52:34;180.97;;;79.20;;
2147;SDS011;1080;48.724;9.104;2023-03-01T07:55:01;187.17;;;85.67;;
2147;SDS011;1080;48.724;9.104;2023-03-01T07:57:28;93.70;;;55.10;;
2147;SDS011;1080;48.724;9.104;2023-03-01T07:59:56;20.20;;;14.23;;
2147;SDS011;1080;48.724;9.104;2023-03-01T08:02:23;48.67;;;35.40;;
2147;SDS011;1080;48.724;9.104;2023-03-01T08:04:50;34.67;;;26.80;;
2147;SDS011;1080;48.724;9.104;2023-03-01T08:07:17;190.20;;;86.80;;
2147;SDS011;1080;48.724;9.104;2023-03-01T08:09:52;199.80;;;86.00;;
2147;SDS011;1080;48.724;9.104;2023-03-01T08:12:19;48.10;;;43.10;;
2147;SDS011;1080;48.724;9.104;2023-03-01T08:14:46;41.00;;;29.93;;
2147;SDS011;1080;48.724;9.104;2023-03-01T08:17:16;63.80;;;49.10;;
2147;SDS011;1080;48.724;9.104;2023-03-01T08:19:43;27.83;;;20.00;;
2147;SDS011;1080;48.724;9.104;2023-03-01T08:22:10;97.03;;;58.60;;
2147;SDS011;1080;48.724;9.104;2023-03-01T08:24:38;189.30;;;81.23;;
2147;SDS011;1080;48.724;9.104;2023-03-01T08:27:06;119.80;;;64.50;;
2147;SDS011;1080;48.724;9.104;2023-03-01T08:29:33;124.10;;;65.30;;
2147;SDS011;1080;48.724;9.104;2023-03-01T08:32:00;41.17;;;34.07;;
2147;SDS011;1080;48.724;9.104;2023-03-01T08:34:27;21.20;;;15.37;;
2147;SDS011;1080;48.724;9.104;2023-03-01T08:36:56;21.50;;;15.00;;
2147;SDS011;1080;48.724;9.104;2023-03-01T08:39:23;20.53;;;13.13;;
2147;SDS011;1080;48.724;9.104;2023-03-01T08:41:50;24.30;;;13.53;;
2147;SDS011;1080;48.724;9.104;2023-03-01T08:44:18;15.10;;;11.93;;
2147;SDS011;1080;48.724;9.104;2023-03-01T08:46:46;18.40;;;13.30;;
2147;SDS011;1080;48.724;9.104;2023-03-01T08:49:15;18.50;;;12.23;;
2147;SDS011;1080;48.724;9.104;2023-03-01T08:51:43;20.00;;;12.67;;
2147;SDS011;1080;48.724;9.104;2023-03-01T08:54:12;20.47;;;13.60;;
2147;SDS011;1080;48.724;9.104;2023-03-01T08:56:40;18.07;;;12.97;;
2147;SDS011;1080;48.724;9.104;2023-03-01T08:59:07;20.37;;;14.47;;
2147;SDS011;1080;48.724;9.104;2023-03-01T09:01:37;23.97;;;13.93;;
2147;SDS011;1080;48.724;9.104;2023-03-01T09:04:05;21.60;;;16.47;;
2147;SDS011;1080;48.724;9.104;2023-03-01T09:06:32;117.17;;;67.47;;
2147;SDS011;1080;48.724;9.104;2023-03-01T09:08:59;182.00;;;83.57;;
2147;SDS011;1080;48.724;9.104;2023-03-01T09:11:27;18.77;;;13.93;;
2147;SDS011;1080;48.724;9.104;2023-03-01T09:13:54;57.60;;;34.47;;
2147;SDS011;1080;48.724;9.104;2023-03-01T09:16:21;67.17;;;51.67;;
2147;SDS011;1080;48.724;9.104;2023-03-01T09:18:50;19.70;;;13.97;;
2147;SDS011;1080;48.724;9.104;2023-03-01T09:21:18;20.87;;;14.87;;
2147;SDS011;1080;48.724;9.104;2023-03-01T09:23:46;22.57;;;15.60;;
2147;SDS011;1080;48.724;9.104;2023-03-01T09:26:14;26.30;;;23.60;;
2147;SDS011;1080;48.724;9.104;2023-03-01T09:28:44;18.00;;;13.90;;
2147;SDS011;1080;48.724;9.104;2023-03-01T09:31:11;22.03;;;16.10;;
2147;SDS011;1080;48.724;9.104;2023-03-01T09:33:40;22.30;;;15.63;;
2147;SDS011;1080;48.724;9.104;2023-03-01T09:36:10;19.33;;;13.03;;
2147;SDS011;1080;48.724;9.104;2023-03-01T09:38:38;25.20;;;16.40;;
2147;SDS011;1080;48.724;9.104;2023-03-01T09:41:09;21.87;;;15.37;;
2147;SDS011;1080;48.724;9.104;2023-03-01T09:43:41;19.27;;;14.87;;
2147;SDS011;1080;48.724;9.104;2023-03-01T09:46:19;21.97;;;15.63;;
2147;SDS011;1080;48.724;9.104;2023-03-01T09:48:48;20.97;;;15.27;;
2147;SDS011;1080;48.724;9.104;2023-03-01T09:51:22;21.20;;;15.73;;
2147;SDS011;1080;48.724;9.104;2023-03-01T09:53:53;18.60;;;14.40;;
2147;SDS011;1080;48.724;9.104;2023-03-01T09:56:22;23.23;;;16.10;;
2147;SDS011;1080;48.724;9.104;2023-03-01T09:58:56;19.40;;;15.23;;
2147;SDS011;1080;48.724;9.104;2023-03-01T10:01:33;18.83;;;14.00;;
2147;SDS011;1080;48.724;9.104;2023-03-01T10:04:22;19.83;;;14.53;;
2147;SDS011;1080;48.724;9.104;2023-03-01T10:07:07;16.73;;;12.90;;
2147;SDS011;1080;48.724;9.104;2023-03-01T10:09:47;17.43;;;13.60;;
2147;SDS011;1080;48.724;9.104;2023-03-01T10:12:15;20.17;;;14.57;;
2147;SDS011;1080;48.724;9.104;2023-03-01T10:14:48;19.80;;;14.03;;
2147;SDS011;1080;48.724;9.104;2023-03-01T10:17:24;20.60;;;13.57;;
2147;SDS011;1080;48.724;9.104;2023-03-01T10:19:57;18.57;;;13.30;;
2147;SDS011;1080;48.724;9.104;2023-03-01T10:22:43;18.80;;;14.00;;
2147;SDS011;1080;48.724;9.104;2023-03-01T10:25:14;18.73;;;14.77;;
2147;SDS011;1080;48.724;9.104;2023-03-01T10:27:44;18.23;;;13.23;;
2147;SDS011;1080;48.724;9.104;2023-03-01T10:30:15;21.90;;;14.10;;
2147;SDS011;1080;48.724;9.104;2023-03-01T10:32:45;46.80;;;34.73;;
2147;SDS011;1080;48.724;9.104;2023-03-01T10:35:17;19.13;;;14.03;;
2147;SDS011;1080;48.724;9.104;2023-03-01T10:37:58;17.43;;;12.33;;
2147;SDS011;1080;48.724;9.104;2023-03-01T10:40:28;21.93;;;13.43;;
2147;SDS011;1080;48.724;9.104;2023-03-01T10:42:57;20.00;;;13.77;;
2147;SDS011;1080;48.724;9.104;2023-03-01T10:45:30;18.83;;;14.83;;
2147;SDS011;1080;48.724;9.104;2023-03-01T10:48:06;21.00;;;14.00;;
2147;SDS011;1080;48.724;9.104;2023-03-01T10:50:42;19.50;;;13.80;;
2147;SDS011;1080;48.724;9.104;2023-03-01T10:53:21;17.80;;;13.93;;
2147;SDS011;1080;48.724;9.104;2023-03-01T10:55:58;18.43;;;13.83;;
2147;SDS011;1080;48.724;9.104;2023-03-01T10:58:27;18.00;;;13.93;;
2147;SDS011;1080;48.724;9.104;2023-03-01T11:00:55;17.80;;;13.90;;
2147;SDS011;1080;48.724;9.104;2023-03-01T11:03:24;19.50;;;13.93;;
2147;SDS011;1080;48.724;9.104;2023-03-01T11:05:55;16.93;;;14.00;;
2147;SDS011;1080;48.724;9.104;2023-03-01T11:08:33;17.90;;;13.40;;
2147;SDS011;1080;48.724;9.104;2023-03-01T11:11:14;18.93;;;13.93;;
2147;SDS011;1080;48.724;9.104;2023-03-01T11:13:47;18.07;;;13.43;;
2147;SDS011;1080;48.724;9.104;2023-03-01T11:16:22;16.83;;;12.77;;
2147;SDS011;1080;48.724;9.104;2023-03-01T11:18:55;16.80;;;13.07;;
2147;SDS011;1080;48.724;9.104;2023-03-01T11:21:28;18.43;;;14.40;;
2147;SDS011;1080;48.724;9.104;2023-03-01T11:24:01;16.23;;;12.80;;
2147;SDS011;1080;48.724;9.104;2023-03-01T11:26:30;18.80;;;15.00;;
2147;SDS011;1080;48.724;9.104;2023-03-01T11:29:01;15.40;;;12.70;;
2147;SDS011;1080;48.724;9.104;2023-03-01T11:31:33;23.07;;;14.30;;
2147;SDS011;1080;48.724;9.104;2023-03-01T11:34:02;18.83;;;13.97;;
2147;SDS011;1080;48.724;9.104;2023-03-01T11:36:34;17.00;;;14.33;;
2147;SDS011;1080;48.724;9.104;2023-03-01T11:39:12;18.30;;;14.83;;
2147;SDS011;1080;48.724;9.104;2023-03-01T11:41:48;17.60;;;13.40;;
2147;SDS011;1080;48.724;9.104;2023-03-01T11:44:18;19.23;;;12.90;;
2147;SDS011;1080;48.724;9.104;2023-03-01T11:47:04;16.73;;;13.30;;
2147;SDS011;1080;48.724;9.104;2023-03-01T11:49:52;16.80;;;13.27;;
2147;SDS011;1080;48.724;9.104;2023-03-01T11:52:35;21.93;;;14.20;;
2147;SDS011;1080;48.724;9.104;2023-03-01T11:55:19;19.40;;;12.87;;
2147;SDS011;1080;48.724;9.104;2023-03-01T11:57:58;19.70;;;13.50;;
2147;SDS011;1080;48.724;9.104;2023-03-01T12:03:33;17.17;;;12.40;;
2147;SDS011;1080;48.724;9.104;2023-03-01T12:06:22;17.97;;;13.67;;
2147;SDS011;1080;48.724;9.104;2023-03-01T12:09:01;15.50;;;12.37;;
2147;SDS011;1080;48.724;9.104;2023-03-01T12:11:43;16.43;;;11.77;;
2147;SDS011;1080;48.724;9.104;2023-03-01T12:17:32;17.27;;;12.53;;
2147;SDS011;1080;48.724;9.104;2023-03-01T12:20:13;18.90;;;11.97;;
2147;SDS011;1080;48.724;9.104;2023-03-01T12:22:55;20.37;;;12.83;;
2147;SDS011;1080;48.724;9.104;2023-03-01T12:25:43;18.37;;;12.50;;
2147;SDS011;1080;48.724;9.104;2023-03-01T12:28:25;19.47;;;12.30;;
2147;SDS011;1080;48.724;9.104;2023-03-01T12:34:03;17.37;;;12.40;;
2147;SDS011;1080;48.724;9.104;2023-03-01T12:36:48;17.40;;;12.73;;
2147;SDS011;1080;48.724;9.104;2023-03-01T12:39:30;19.60;;;12.93;;
2147;SDS011;1080;48.724;9.104;2023-03-01T12:42:09;22.27;;;12.43;;
2147;SDS011;1080;48.724;9.104;2023-03-01T12:44:50;15.10;;;12.23;;
2147;SDS011;1080;48.724;9.104;2023-03-01T12:47:32;17.90;;;12.10;;
2147;SDS011;1080;48.724;9.104;2023-03-01T12:50:18;14.93;;;11.10;;
2147;SDS011;1080;48.724;9.104;2023-03-01T12:52:48;15.87;;;12.27;;
2147;SDS011;1080;48.724;9.104;2023-03-01T12:55:20;17.70;;;12.30;;
2147;SDS011;1080;48.724;9.104;2023-03-01T12:57:56;17.90;;;12.97;;
2147;SDS011;1080;48.724;9.104;2023-03-01T13:00:32;19.07;;;11.43;;
2147;SDS011;1080;48.724;9.104;2023-03-01T13:03:06;15.53;;;11.17;;
2147;SDS011;1080;48.724;9.104;2023-03-01T13:05:46;15.17;;;11.87;;
2147;SDS011;1080;48.724;9.104;2023-03-01T13:08:27;17.67;;;12.13;;
2147;SDS011;1080;48.724;9.104;2023-03-01T13:11:00;16.40;;;12.30;;
2147;SDS011;1080;48.724;9.104;2023-03-01T13:13:29;15.53;;;10.77;;
2147;SDS011;1080;48.724;9.104;2023-03-01T13:15:58;14.60;;;10.50;;
2147;SDS011;1080;48.724;9.104;2023-03-01T13:18:48;14.30;;;10.10;;
2147;SDS011;1080;48.724;9.104;2023-03-01T13:21:19;15.80;;;11.40;;
2147;SDS011;1080;48.724;9.104;2023-03-01T13:23:56;17.93;;;10.47;;
2147;SDS011;1080;48.724;9.104;2023-03-01T13:26:23;16.23;;;12.67;;
2147;SDS011;1080;48.724;9.104;2023-03-01T13:28:51;16.53;;;9.83;;
2147;SDS011;1080;48.724;9.104;2023-03-01T13:37:21;16.00;;;10.17;;
2147;SDS011;1080;48.724;9.104;2023-03-01T13:39:54;18.10;;;14.23;;
2147;SDS011;1080;48.724;9.104;2023-03-01T13:42:33;12.93;;;9.50;;
2147;SDS011;1080;48.724;9.104;2023-03-01T13:45:12;14.23;;;10.70;;
2147;SDS011;1080;48.724;9.104;2023-03-01T13:47:45;15.37;;;10.20;;
2147;SDS011;1080;48.724;9.104;2023-03-01T13:50:21;12.23;;;9.57;;
2147;SDS011;1080;48.724;9.104;2023-03-01T13:52:56;14.60;;;10.67;;
2147;SDS011;1080;48.724;9.104;2023-03-01T13:55:27;15.57;;;10.30;;
2147;SDS011;1080;48.724;9.104;2023-03-01T13:58:01;16.07;;;11.87;;
2147;SDS011;1080;48.724;9.104;2023-03-01T14:00:33;15.07;;;10.57;;
2147;SDS011;1080;48.724;9.104;2023-03-01T14:03:02;15.63;;;11.20;;
2147;SDS011;1080;48.724;9.104;2023-03-01T14:05:37;16.53;;;12.73;;
2147;SDS011;1080;48.724;9.104;2023-03-01T14:08:13;16.97;;;11.80;;
2147;SDS011;1080;48.724;9.104;2023-03-01T14:10:53;18.40;;;12.47;;
2147;SDS011;1080;48.724;9.104;2023-03-01T14:13:45;15.73;;;11.70;;
2147;SDS011;1080;48.724;9.104;2023-03-01T14:16:24;16.80;;;11.33;;
2147;SDS011;1080;48.724;9.104;2023-03-01T14:19:01;19.70;;;12.87;;
2147;SDS011;1080;48.724;9.104;2023-03-01T14:21:42;19.57;;;13.27;;
2147;SDS011;1080;48.724;9.104;2023-03-01T14:24:15;16.03;;;12.20;;
2147;SDS011;1080;48.724;9.104;2023-03-01T14:26:44;18.67;;;13.10;;
2147;SDS011;1080;48.724;9.104;2023-03-01T14:29:23;16.63;;;13.00;;
2147;SDS011;1080;48.724;9.104;2023-03-01T14:31:50;20.57;;;13.77;;
2147;SDS011;1080;48.724;9.104;2023-03-01T14:34:19;19.67;;;14.23;;
2147;SDS011;1080;48.724;9.104;2023-03-01T14:36:48;16.90;;;12.90;;
2147;SDS011;1080;48.724;9.104;2023-03-01T14:39:16;20.47;;;14.53;;
2147;SDS011;1080;48.724;9.104;2023-03-01T14:41:43;24.63;;;14.73;;
2147;SDS011;1080;48.724;9.104;2023-03-01T14:44:12;17.50;;;12.90;;
2147;SDS011;1080;48.724;9.104;2023-03-01T14:46:43;17.40;;;14.00;;
2147;SDS011;1080;48.724;9.104;2023-03-01T14:49:13;16.70;;;13.17;;
2147;SDS011;1080;48.724;9.104;2023-03-01T14:51:43;21.50;;;13.40;;
2147;SDS011;1080;48.724;9.104;2023-03-01T14:54:23;20.87;;;14.73;;
2147;SDS011;1080;48.724;9.104;2023-03-01T14:56:53;18.17;;;13.10;;
2147;SDS011;1080;48.724;9.104;2023-03-01T14:59:23;19.13;;;14.03;;
2147;SDS011;1080;48.724;9.104;2023-03-01T15:01:51;23.00;;;15.37;;
2147;SDS011;1080;48.724;9.104;2023-03-01T15:04:20;18.87;;;13.80;;
2147;SDS011;1080;48.724;9.104;2023-03-01T15:06:51;22.23;;;15.63;;
2147;SDS011;1080;48.724;9.104;2023-03-01T15:09:21;20.40;;;13.03;;
2147;SDS011;1080;48.724;9.104;2023-03-01T15:11:58;17.17;;;12.70;;
2147;SDS011;1080;48.724;9.104;2023-03-01T15:14:28;19.47;;;13.10;;
2147;SDS011;1080;48.724;9.104;2023-03-01T15:17:04;18.20;;;13.07;;
2147;SDS011;1080;48.724;9.104;2023-03-01T15:19:31;26.33;;;14.87;;
2147;SDS011;1080;48.724;9.104;2023-03-01T15:21:59;19.93;;;12.50;;
2147;SDS011;1080;48.724;9.104;2023-03-01T15:24:38;21.53;;;14.23;;